Time;durP1;ratioP1;P1;durP2;ratioP2;P2;SDS_P1;SDS_P2;PMS_P1;PMS_P2;Temp;Humidity;BMP_temperature;BMP_pressure;BME280_temperature;BME280_humidity;BME280_pressure;Samples;Min_cycle;Max_cycle;Signal;HPM_P1;HPM_P2
2023/09/06 00:01:33;;;;;;;2.88;2.25;;;21.80;73.80;;;;;;10366658;28;20034;-57
2023/09/06 00:06:34;;;;;;;4.18;2.65;;;21.80;73.80;;;;;;10386687;28;20040;-58
2023/09/06 00:11:34;;;;;;;3.45;1.80;;;21.80;73.80;;;;;;10406683;28;20032;-58
2023/09/06 00:16:35;;;;;;;2.50;1.92;;;21.80;73.80;;;;;;10405327;28;20056;-57
2023/09/06 00:21:40;;;;;;;2.30;1.70;;;21.80;73.70;;;;;;10402869;28;20160;-57
2023/09/06 00:26:42;;;;;;;3.17;2.13;;;21.90;73.70;;;;;;10366379;28;20115;-57
2023/09/06 00:31:43;;;;;;;2.05;1.50;;;21.80;73.70;;;;;;10382856;28;20456;-58
2023/09/06 00:36:43;;;;;;;2.47;1.80;;;21.80;73.60;;;;;;10364416;28;20236;-57
2023/09/06 00:41:44;;;;;;;3.78;2.40;;;21.80;73.70;;;;;;10364768;28;20041;-57
2023/09/06 00:46:46;;;;;;;4.30;2.20;;;21.80;73.70;;;;;;10364262;28;20029;-57
2023/09/06 00:51:46;;;;;;;4.28;1.98;;;21.80;73.70;;;;;;10383506;28;20033;-57
2023/09/06 00:56:47;;;;;;;2.53;2.33;;;21.80;73.70;;;;;;10387261;28;20037;-56
2023/09/06 01:01:48;;;;;;;3.60;2.50;;;21.80;73.70;;;;;;10405492;28;20033;-57
2023/09/06 01:06:56;;;;;;;3.92;2.35;;;21.80;73.70;;;;;;10404736;28;20551;-57
2023/09/06 01:11:57;;;;;;;2.97;2.20;;;21.80;73.70;;;;;;10390901;28;20033;-57
2023/09/06 01:16:58;;;;;;;3.58;2.40;;;21.80;73.70;;;;;;10404848;28;20046;-57
2023/09/06 01:22:08;;;;;;;7.13;2.22;;;21.80;73.70;;;;;;10379155;28;20030;-57
2023/09/06 01:27:12;;;;;;;3.45;2.28;;;21.80;73.70;;;;;;10363793;28;20061;-57
2023/09/06 01:32:14;;;;;;;3.10;2.20;;;21.80;73.70;;;;;;10401816;28;20099;-57
2023/09/06 01:37:14;;;;;;;3.03;2.40;;;21.80;73.60;;;;;;10394181;28;20061;-57
2023/09/06 01:42:22;;;;;;;2.80;2.00;;;21.80;73.60;;;;;;10373698;28;20030;-57
2023/09/06 01:47:24;;;;;;;2.63;1.92;;;21.80;73.60;;;;;;10373147;28;20366;-57
2023/09/06 01:52:25;;;;;;;3.08;2.58;;;21.80;73.60;;;;;;10373150;28;20292;-57
2023/09/06 01:57:26;;;;;;;2.45;2.10;;;21.80;73.60;;;;;;10369988;28;20393;-57
2023/09/06 02:02:26;;;;;;;3.83;2.17;;;21.80;73.60;;;;;;10370525;28;20024;-57
2023/09/06 02:07:27;;;;;;;2.75;2.13;;;21.80;73.60;;;;;;10370075;28;20305;-57
2023/09/06 02:12:28;;;;;;;2.90;2.38;;;21.80;73.70;;;;;;10369772;28;20061;-58
2023/09/06 02:17:29;;;;;;;2.47;1.95;;;21.80;73.60;;;;;;10397143;28;20029;-57
2023/09/06 02:22:30;;;;;;;2.90;2.10;;;21.70;73.60;;;;;;10400402;28;20497;-57
2023/09/06 02:27:31;;;;;;;2.80;1.80;;;21.70;73.60;;;;;;10369271;28;20018;-57
2023/09/06 02:32:35;;;;;;;3.45;2.20;;;21.80;73.70;;;;;;10387422;28;20409;-58
2023/09/06 02:37:36;;;;;;;2.92;2.28;;;21.70;73.70;;;;;;10368755;28;20152;-57
2023/09/06 02:42:38;;;;;;;3.28;2.40;;;21.70;73.60;;;;;;10369064;28;20109;-57
2023/09/06 02:47:49;;;;;;;3.13;2.03;;;21.70;73.60;;;;;;10368185;28;20030;-58
2023/09/06 02:52:53;;;;;;;2.67;1.90;;;21.70;73.50;;;;;;10368716;28;20061;-57
2023/09/06 02:57:56;;;;;;;2.78;2.05;;;21.70;73.50;;;;;;10367771;28;20128;-57
2023/09/06 03:03:04;;;;;;;3.45;1.92;;;21.70;73.50;;;;;;10368567;28;20168;-57
2023/09/06 03:08:06;;;;;;;2.40;1.80;;;21.70;73.50;;;;;;10367652;28;20029;-56
2023/09/06 03:13:09;;;;;;;2.78;2.17;;;21.70;73.60;;;;;;10389626;28;20045;-57
2023/09/06 03:18:10;;;;;;;2.78;1.92;;;21.70;73.60;;;;;;10407749;28;20532;-57
2023/09/06 03:23:19;;;;;;;2.65;1.90;;;21.70;73.50;;;;;;10392647;28;20052;-57
2023/09/06 03:28:21;;;;;;;3.20;2.20;;;21.70;73.60;;;;;;10378449;28;20021;-57
2023/09/06 03:33:22;;;;;;;2.42;1.90;;;21.70;73.60;;;;;;10374970;28;20041;-57
2023/09/06 03:38:25;;;;;;;3.35;1.98;;;21.60;73.50;;;;;;10376075;28;20049;-58
2023/09/06 03:43:32;;;;;;;2.13;1.50;;;21.70;73.50;;;;;;10383218;28;20511;-57
2023/09/06 03:48:33;;;;;;;3.33;1.77;;;21.70;73.60;;;;;;10382096;28;20555;-58
2023/09/06 03:53:37;;;;;;;3.05;1.90;;;21.80;73.70;;;;;;10381512;28;20083;-58
2023/09/06 03:58:38;;;;;;;2.83;2.00;;;21.80;73.90;;;;;;10381409;28;20037;-57
2023/09/06 04:03:40;;;;;;;2.70;1.98;;;21.80;74.40;;;;;;10383267;28;20052;-57
2023/09/06 04:08:41;;;;;;;2.13;1.60;;;21.80;74.00;;;;;;10370272;28;20042;-58
2023/09/06 04:13:43;;;;;;;2.53;2.15;;;21.80;73.70;;;;;;10367966;28;20378;-58
2023/09/06 04:18:44;;;;;;;3.33;2.40;;;21.70;73.80;;;;;;10403163;28;20049;-58
2023/09/06 04:23:44;;;;;;;3.17;1.90;;;21.70;73.70;;;;;;10385619;28;20682;-58
2023/09/06 04:28:45;;;;;;;2.67;1.70;;;21.70;73.80;;;;;;10383378;28;20035;-58
2023/09/06 04:33:46;;;;;;;2.50;1.85;;;21.70;73.80;;;;;;10365551;28;20038;-57
2023/09/06 04:38:47;;;;;;;2.63;1.92;;;21.60;73.70;;;;;;10364428;28;20029;-58
2023/09/06 04:43:47;;;;;;;3.00;2.03;;;21.60;73.70;;;;;;10362656;28;20492;-57
2023/09/06 04:48:48;;;;;;;2.33;1.70;;;21.60;73.70;;;;;;10363296;28;20036;-58
2023/09/06 04:53:49;;;;;;;2.75;1.75;;;21.60;73.60;;;;;;10390843;28;20044;-57
2023/09/06 04:58:49;;;;;;;2.45;1.80;;;21.60;73.60;;;;;;10407965;28;20030;-58
2023/09/06 05:03:50;;;;;;;2.55;1.90;;;21.60;73.60;;;;;;10407308;28;20033;-58
2023/09/06 05:08:51;;;;;;;2.35;1.98;;;21.60;73.60;;;;;;10406402;28;20033;-58
2023/09/06 05:13:52;;;;;;;3.05;2.33;;;21.60;73.50;;;;;;10374058;28;20262;-57
2023/09/06 05:18:53;;;;;;;5.78;2.30;;;21.60;73.50;;;;;;10413270;28;20116;-57
2023/09/06 05:23:54;;;;;;;7.13;2.40;;;21.70;74.00;;;;;;10375307;28;20404;-57
2023/09/06 05:28:54;;;;;;;3.63;2.28;;;21.80;74.10;;;;;;10390858;28;20033;-57
2023/09/06 05:33:55;;;;;;;9.18;2.55;;;21.90;74.00;;;;;;10377404;28;20038;-58
2023/09/06 05:38:56;;;;;;;5.05;1.83;;;21.90;74.00;;;;;;10372638;28;20026;-57
2023/09/06 05:43:56;;;;;;;13.45;3.00;;;21.90;73.80;;;;;;10373350;28;20393;-56
2023/09/06 05:48:57;;;;;;;6.95;1.75;;;21.80;74.00;;;;;;10372415;28;20037;-56
2023/09/06 05:54:01;;;;;;;5.72;1.73;;;21.90;73.70;;;;;;10373174;28;20034;-56
2023/09/06 05:59:01;;;;;;;12.55;4.03;;;21.80;73.70;;;;;;10372171;28;20511;-57
2023/09/06 06:04:02;;;;;;;11.80;3.38;;;21.80;73.80;;;;;;10372549;28;20030;-56
2023/09/06 06:09:04;;;;;;;28.77;4.10;;;21.80;73.80;;;;;;10372375;28;20440;-57
2023/09/06 06:14:04;;;;;;;20.27;4.13;;;21.80;73.80;;;;;;10370814;28;20050;-56
2023/09/06 06:19:05;;;;;;;5.88;2.20;;;21.90;73.80;;;;;;10410366;28;20115;-56
2023/09/06 06:24:09;;;;;;;8.68;2.35;;;21.80;73.70;;;;;;10371754;28;20391;-57
2023/09/06 06:29:10;;;;;;;10.05;2.40;;;21.80;74.20;;;;;;10389649;28;20069;-56
2023/09/06 06:34:11;;;;;;;8.80;2.67;;;21.70;74.10;;;;;;10371722;28;20026;-56
2023/09/06 06:39:13;;;;;;;6.13;2.47;;;21.70;74.10;;;;;;10370453;28;20034;-56
2023/09/06 06:44:14;;;;;;;5.75;3.03;;;21.70;74.00;;;;;;10370612;28;20034;-57
2023/09/06 06:49:15;;;;;;;5.45;2.55;;;21.70;74.00;;;;;;10370252;28;20409;-57
2023/09/06 06:54:16;;;;;;;4.00;2.40;;;21.70;73.90;;;;;;10370482;28;20177;-56
2023/09/06 06:59:18;;;;;;;9.63;3.03;;;21.70;73.90;;;;;;10369209;28;20056;-56
2023/09/06 07:04:18;;;;;;;5.88;2.70;;;21.70;73.80;;;;;;10370238;28;20056;-57
2023/09/06 07:09:19;;;;;;;13.60;3.45;;;21.70;73.80;;;;;;10369390;28;20036;-56
2023/09/06 07:14:20;;;;;;;5.57;2.25;;;21.70;73.60;;;;;;10370878;28;20064;-56
2023/09/06 07:19:21;;;;;;;6.75;3.00;;;21.70;73.60;;;;;;10425086;28;20037;-59
2023/09/06 07:24:22;;;;;;;7.45;3.33;;;21.80;73.80;;;;;;10383958;28;20026;-59
2023/09/06 07:29:23;;;;;;;7.47;2.75;;;21.70;73.60;;;;;;10388892;28;20613;-59
2023/09/06 07:34:24;;;;;;;8.48;3.20;;;21.80;73.60;;;;;;10384548;28;20025;-58
2023/09/06 07:39:24;;;;;;;5.35;3.10;;;21.80;73.70;;;;;;10367885;28;20037;-56
2023/09/06 07:44:29;;;;;;;3.50;2.17;;;21.80;73.40;;;;;;10377656;28;20515;-56
2023/09/06 07:49:31;;;;;;;3.58;2.42;;;21.80;73.50;;;;;;10368483;28;20088;-55
2023/09/06 07:54:31;;;;;;;10.02;3.00;;;21.80;73.40;;;;;;10368612;28;20114;-56
2023/09/06 07:59:32;;;;;;;4.38;2.95;;;21.80;73.50;;;;;;10367641;28;20596;-56
2023/09/06 08:04:33;;;;;;;6.35;3.05;;;21.80;73.60;;;;;;10368205;28;20022;-56
2023/09/06 08:09:35;;;;;;;6.40;3.28;;;21.80;73.60;;;;;;10367932;28;20038;-57
2023/09/06 08:14:35;;;;;;;4.82;2.92;;;21.80;73.60;;;;;;10376580;28;20045;-56
2023/09/06 08:19:36;;;;;;;4.57;3.53;;;21.80;73.50;;;;;;10408529;28;20049;-56
2023/09/06 08:24:37;;;;;;;6.97;3.67;;;21.90;73.60;;;;;;10381362;28;20025;-56
2023/09/06 08:29:38;;;;;;;6.93;3.03;;;21.90;73.50;;;;;;10385847;28;20041;-57
2023/09/06 08:34:38;;;;;;;4.72;3.35;;;21.90;73.50;;;;;;10367091;28;20029;-57
2023/09/06 08:39:39;;;;;;;5.28;2.70;;;22.00;73.50;;;;;;10366774;28;20026;-57
2023/09/06 08:44:43;;;;;;;4.35;2.97;;;22.00;73.50;;;;;;10367434;28;20029;-56
2023/09/06 08:49:46;;;;;;;3.92;2.47;;;22.00;73.50;;;;;;10392591;28;20056;-56
2023/09/06 08:54:50;;;;;;;4.95;3.17;;;22.00;73.40;;;;;;10407410;28;20377;-56
2023/09/06 08:59:51;;;;;;;4.32;2.83;;;22.10;73.40;;;;;;10407196;28;20045;-56
2023/09/06 09:04:51;;;;;;;4.72;2.70;;;22.10;73.50;;;;;;10392623;28;20030;-56
2023/09/06 09:10:07;;;;;;;4.13;2.60;;;22.10;73.40;;;;;;10406712;28;20026;-56
2023/09/06 09:15:08;;;;;;;4.82;3.08;;;22.10;73.40;;;;;;10407034;28;20056;-55
2023/09/06 09:20:09;;;;;;;4.07;2.70;;;22.20;73.50;;;;;;10368838;28;20034;-56
2023/09/06 09:25:14;;;;;;;4.18;2.85;;;22.10;73.40;;;;;;10369339;28;20061;-56
2023/09/06 09:30:16;;;;;;;3.45;2.47;;;22.20;73.40;;;;;;10383580;28;20022;-56
2023/09/06 09:35:18;;;;;;;7.60;3.47;;;22.20;73.30;;;;;;10365657;28;20045;-56
2023/09/06 09:40:20;;;;;;;4.50;2.90;;;22.20;73.40;;;;;;10365402;28;20577;-56
2023/09/06 09:45:28;;;;;;;5.30;2.83;;;22.20;73.30;;;;;;10365644;28;20408;-56
2023/09/06 09:50:30;;;;;;;4.20;2.60;;;22.20;73.30;;;;;;10365655;28;20038;-56
2023/09/06 09:55:35;;;;;;;3.67;2.60;;;22.30;73.40;;;;;;10400285;28;20021;-56
2023/09/06 10:00:39;;;;;;;5.07;3.03;;;22.30;73.30;;;;;;10413359;28;20129;-56
2023/09/06 10:05:42;;;;;;;4.93;2.95;;;22.30;73.30;;;;;;10413337;28;20033;-55
2023/09/06 10:10:43;;;;;;;4.25;3.03;;;22.40;73.20;;;;;;10412229;28;20481;-56
2023/09/06 10:15:46;;;;;;;3.83;2.60;;;22.40;73.10;;;;;;10372981;28;20053;-56
2023/09/06 10:20:47;;;;;;;3.63;2.40;;;22.40;73.10;;;;;;10371023;28;20037;-57
2023/09/06 10:25:51;;;;;;;4.18;2.65;;;22.50;73.10;;;;;;10407398;28;20032;-55
2023/09/06 10:31:07;;;;;;;3.92;2.60;;;22.50;73.20;;;;;;10403273;28;20041;-57
2023/09/06 10:36:12;;;;;;;4.80;2.90;;;22.60;73.30;;;;;;10371885;28;20041;-57
2023/09/06 10:41:12;;;;;;;4.60;2.80;;;22.60;72.90;;;;;;10396182;28;20150;-55
2023/09/06 10:46:13;;;;;;;5.13;2.70;;;22.70;73.10;;;;;;10370654;28;20032;-56
2023/09/06 10:51:14;;;;;;;4.30;3.47;;;22.80;73.00;;;;;;10378469;28;20036;-57
2023/09/06 10:56:28;;;;;;;5.65;3.05;;;22.80;73.40;;;;;;10387757;28;20163;-56
2023/09/06 11:01:28;;;;;;;4.95;3.35;;;22.90;73.60;;;;;;10377521;28;20034;-57
2023/09/06 11:06:48;;;;;;;5.10;3.03;;;22.80;73.90;;;;;;10390991;28;20033;-56
2023/09/06 11:11:52;;;;;;;;;;;22.90;73.90;;;;;;10389589;28;20046;-57
2023/09/06 11:16:53;;;;;;;4.18;3.03;;;22.90;73.90;;;;;;10387510;28;20016;-56
2023/09/06 11:22:10;;;;;;;4.35;2.80;;;22.90;73.50;;;;;;10385987;28;20389;-58
2023/09/06 11:27:20;;;;;;;4.13;2.63;;;23.00;73.50;;;;;;10409161;28;20030;-57
2023/09/06 11:32:20;;;;;;;7.10;3.47;;;23.00;73.30;;;;;;10380030;28;20049;-57
2023/09/06 11:37:22;;;;;;;6.70;4.38;;;23.00;73.60;;;;;;10379550;28;20088;-57
2023/09/06 11:42:24;;;;;;;4.88;2.70;;;22.90;73.80;;;;;;10383584;28;20456;-57
2023/09/06 11:47:29;;;;;;;5.22;2.97;;;22.90;73.90;;;;;;10369265;28;20034;-58
2023/09/06 11:52:30;;;;;;;6.10;3.05;;;23.00;73.60;;;;;;10368813;28;20472;-57
2023/09/06 11:57:31;;;;;;;4.18;2.97;;;23.00;73.50;;;;;;10368784;28;20033;-57
2023/09/06 12:02:35;;;;;;;4.18;3.25;;;23.00;73.40;;;;;;10368648;28;20473;-57
2023/09/06 12:07:36;;;;;;;4.43;3.20;;;23.00;73.40;;;;;;10368684;28;20080;-57
2023/09/06 12:12:40;;;;;;;4.25;2.88;;;23.00;73.40;;;;;;10367789;28;20046;-56
2023/09/06 12:17:42;;;;;;;8.52;3.22;;;23.00;73.40;;;;;;10395986;28;20037;-57
2023/09/06 12:22:44;;;;;;;9.77;3.90;;;23.10;73.60;;;;;;10397655;28;20489;-57
2023/09/06 12:27:47;;;;;;;7.60;3.95;;;23.10;73.30;;;;;;10380922;28;20378;-57
2023/09/06 12:32:47;;;;;;;7.45;3.65;;;23.10;73.50;;;;;;10383799;28;20035;-57
2023/09/06 12:37:48;;;;;;;7.13;3.28;;;23.10;73.50;;;;;;10368227;28;20025;-57
2023/09/06 12:42:49;;;;;;;13.90;3.72;;;23.10;73.60;;;;;;10367474;28;20032;-58
2023/09/06 12:47:50;;;;;;;6.13;3.97;;;23.10;73.50;;;;;;10367657;28;20037;-56
2023/09/06 12:52:51;;;;;;;7.03;3.70;;;23.10;73.30;;;;;;10367561;28;20048;-59
2023/09/06 12:57:52;;;;;;;9.05;3.75;;;23.10;73.00;;;;;;10367685;28;20555;-57
2023/09/06 13:02:53;;;;;;;15.30;3.65;;;23.10;73.20;;;;;;10375570;28;20087;-60
2023/09/06 13:07:54;;;;;;;6.00;3.50;;;23.10;72.90;;;;;;10408261;28;20099;-60
2023/09/06 13:12:54;;;;;;;9.45;4.03;;;23.10;72.70;;;;;;10392981;28;20049;-60
2023/09/06 13:17:55;;;;;;;7.22;4.03;;;23.00;72.30;;;;;;10406622;28;20034;-60
2023/09/06 13:22:57;;;;;;;6.80;3.70;;;23.10;72.20;;;;;;10398153;28;20033;-57
2023/09/06 13:27:57;;;;;;;6.63;3.28;;;23.10;72.00;;;;;;10386342;28;20025;-59
2023/09/06 13:32:58;;;;;;;15.38;3.92;;;23.00;72.00;;;;;;10387049;28;20040;-58
2023/09/06 13:37:59;;;;;;;7.63;3.58;;;23.00;71.70;;;;;;10374358;28;20041;-58
2023/09/06 13:43:00;;;;;;;5.90;3.13;;;23.00;71.50;;;;;;10373807;28;20065;-60
2023/09/06 13:48:00;;;;;;;6.32;3.85;;;23.00;71.60;;;;;;10398321;28;20090;-60
2023/09/06 13:53:03;;;;;;;5.43;3.90;;;23.00;71.30;;;;;;10415032;28;20075;-60
2023/09/06 13:58:04;;;;;;;5.43;3.25;;;23.00;71.00;;;;;;10414225;28;20128;-60
2023/09/06 14:03:05;;;;;;;34.15;6.47;;;23.00;71.20;;;;;;10411463;28;20037;-60
2023/09/06 14:08:06;;;;;;;8.52;4.28;;;23.00;71.30;;;;;;10372858;28;20485;-58
2023/09/06 14:13:07;;;;;;;8.02;3.88;;;23.00;71.20;;;;;;10373225;28;20100;-58
2023/09/06 14:18:07;;;;;;;15.25;4.00;;;23.00;71.00;;;;;;10391426;28;20056;-61
2023/09/06 14:23:08;;;;;;;6.70;3.90;;;23.00;70.60;;;;;;10386517;28;20026;-58
2023/09/06 14:28:09;;;;;;;8.30;3.67;;;23.00;70.30;;;;;;10380262;28;20033;-58
2023/09/06 14:33:10;;;;;;;6.40;4.35;;;23.00;70.50;;;;;;10387199;28;20564;-58
2023/09/06 14:38:14;;;;;;;8.85;4.80;;;23.00;70.60;;;;;;10399980;28;20032;-60
2023/09/06 14:43:14;;;;;;;12.93;8.07;;;23.00;70.40;;;;;;10386984;28;20044;-60
2023/09/06 14:48:15;;;;;;;20.08;11.40;;;23.00;70.50;;;;;;10388035;28;20021;-60
2023/09/06 14:53:16;;;;;;;18.98;10.75;;;23.00;70.20;;;;;;10371708;28;20164;-60
2023/09/06 14:58:17;;;;;;;17.35;10.70;;;23.00;70.00;;;;;;10370899;28;20030;-57
2023/09/06 15:03:17;;;;;;;18.55;10.25;;;23.00;70.50;;;;;;10404685;28;20025;-56
2023/09/06 15:08:19;;;;;;;19.38;9.23;;;23.00;70.50;;;;;;10410280;28;20033;-56
2023/09/06 15:13:20;;;;;;;14.93;9.30;;;23.00;70.60;;;;;;10375503;28;20585;-59
2023/09/06 15:18:21;;;;;;;18.38;8.77;;;23.00;70.60;;;;;;10368858;28;20069;-59
2023/09/06 15:23:22;;;;;;;13.75;7.53;;;23.00;70.60;;;;;;10369029;28;20516;-59
2023/09/06 15:28:22;;;;;;;15.50;8.70;;;23.00;70.90;;;;;;10390987;28;20060;-59
2023/09/06 15:33:23;;;;;;;12.65;6.18;;;23.00;70.70;;;;;;10390057;28;20037;-59
2023/09/06 15:38:24;;;;;;;10.68;6.70;;;23.00;70.60;;;;;;10369760;28;20512;-59
2023/09/06 15:43:25;;;;;;;10.00;5.85;;;23.00;70.10;;;;;;10370115;28;20381;-58
2023/09/06 15:48:25;;;;;;;8.02;5.38;;;23.00;70.20;;;;;;10369127;28;20444;-58
2023/09/06 15:53:26;;;;;;;8.30;5.28;;;23.00;70.40;;;;;;10369341;28;20042;-58
2023/09/06 15:58:27;;;;;;;10.13;5.30;;;23.00;70.50;;;;;;10369115;28;20084;-59
2023/09/06 16:03:28;;;;;;;10.68;5.55;;;23.00;70.40;;;;;;10369267;28;20432;-58
2023/09/06 16:08:28;;;;;;;11.18;5.90;;;23.00;70.60;;;;;;10369146;28;20029;-58
2023/09/06 16:13:29;;;;;;;12.90;5.65;;;23.00;70.80;;;;;;10368727;28;20054;-58
2023/09/06 16:18:30;;;;;;;13.82;6.63;;;23.00;70.60;;;;;;10403664;28;20084;-60
2023/09/06 16:23:32;;;;;;;11.05;4.78;;;23.00;70.70;;;;;;10392464;28;20030;-59
2023/09/06 16:28:34;;;;;;;18.80;6.30;;;23.00;70.70;;;;;;10384144;28;20050;-57
2023/09/06 16:33:35;;;;;;;18.33;6.65;;;22.90;71.00;;;;;;10370670;28;20051;-57
2023/09/06 16:38:36;;;;;;;18.52;6.35;;;23.00;71.10;;;;;;10399885;28;20479;-59
2023/09/06 16:43:37;;;;;;;12.75;4.78;;;23.00;71.60;;;;;;10393093;28;20064;-60
2023/09/06 16:48:38;;;;;;;11.63;5.00;;;22.90;71.30;;;;;;10407459;28;20029;-60
2023/09/06 16:53:38;;;;;;;10.55;4.85;;;23.00;72.00;;;;;;10407644;28;20040;-59
2023/09/06 16:58:41;;;;;;;11.95;4.90;;;22.90;71.40;;;;;;10405729;28;20034;-60
2023/09/06 17:03:42;;;;;;;11.18;4.32;;;22.90;71.40;;;;;;10397095;28;20040;-59
2023/09/06 17:08:43;;;;;;;9.55;3.92;;;22.90;71.50;;;;;;10415403;28;20033;-59
2023/09/06 17:13:43;;;;;;;9.30;4.30;;;22.90;71.60;;;;;;10415633;28;20045;-60
2023/09/06 17:18:44;;;;;;;8.32;4.07;;;22.90;71.60;;;;;;10396929;28;20033;-60
2023/09/06 17:23:45;;;;;;;7.45;3.88;;;22.90;71.70;;;;;;10394957;28;20032;-60
2023/09/06 17:28:47;;;;;;;7.38;4.05;;;23.00;71.50;;;;;;10409594;28;20483;-59
2023/09/06 17:33:48;;;;;;;8.30;3.83;;;23.00;71.60;;;;;;10373890;28;20046;-58
2023/09/06 17:38:51;;;;;;;6.50;3.97;;;22.90;71.70;;;;;;10373128;28;20038;-57
2023/09/06 17:43:51;;;;;;;6.07;3.42;;;22.90;71.90;;;;;;10373581;28;20033;-57
2023/09/06 17:48:52;;;;;;;6.00;4.00;;;22.90;72.00;;;;;;10372383;28;20045;-56
2023/09/06 17:53:53;;;;;;;8.15;4.35;;;22.90;72.70;;;;;;10373087;28;20033;-57
2023/09/06 17:58:54;;;;;;;6.53;3.72;;;22.90;72.20;;;;;;10372612;28;20030;-57
2023/09/06 18:03:57;;;;;;;5.75;3.72;;;22.90;72.30;;;;;;10385905;28;20027;-59
2023/09/06 18:08:58;;;;;;;6.53;3.88;;;22.90;72.40;;;;;;10397381;28;20072;-60
2023/09/06 18:13:59;;;;;;;6.07;3.72;;;22.90;72.60;;;;;;10370931;28;20038;-60
2023/09/06 18:19:01;;;;;;;8.32;3.95;;;22.90;72.60;;;;;;10411120;28;20030;-60
2023/09/06 18:24:08;;;;;;;8.93;3.97;;;22.80;72.50;;;;;;10389783;28;20088;-58
2023/09/06 18:29:12;;;;;;;5.13;3.70;;;22.90;73.70;;;;;;10390681;28;20045;-59
2023/09/06 18:34:13;;;;;;;6.40;4.07;;;22.90;73.00;;;;;;10393764;28;20032;-59
2023/09/06 18:39:14;;;;;;;5.60;3.60;;;22.90;73.20;;;;;;10412142;28;20030;-59
2023/09/06 18:44:15;;;;;;;5.20;3.40;;;22.80;73.20;;;;;;10413082;28;20053;-59
2023/09/06 18:49:16;;;;;;;6.22;3.95;;;22.80;73.30;;;;;;10410245;28;20037;-59
2023/09/06 18:54:19;;;;;;;8.45;3.75;;;22.90;73.70;;;;;;10392284;28;20044;-56
2023/09/06 18:59:21;;;;;;;4.40;3.45;;;22.90;73.60;;;;;;10402084;28;20026;-56
2023/09/06 19:04:21;;;;;;;6.15;3.58;;;22.90;73.60;;;;;;10368658;28;20030;-56
2023/09/06 19:09:22;;;;;;;4.10;3.22;;;22.80;73.50;;;;;;10367788;28;20048;-56
2023/09/06 19:14:23;;;;;;;4.88;3.65;;;22.80;73.70;;;;;;10369764;28;20050;-57
2023/09/06 19:19:29;;;;;;;4.80;3.40;;;22.80;73.90;;;;;;10409081;28;20087;-56
2023/09/06 19:24:29;;;;;;;5.75;3.30;;;22.80;73.90;;;;;;10381602;28;20038;-57
2023/09/06 19:29:30;;;;;;;5.82;2.88;;;22.80;73.90;;;;;;10385583;28;20033;-56
2023/09/06 19:34:31;;;;;;;4.68;3.38;;;22.80;73.90;;;;;;10367484;28;20551;-58
2023/09/06 19:39:32;;;;;;;4.75;3.22;;;22.80;73.90;;;;;;10367063;28;20128;-57
2023/09/06 19:44:34;;;;;;;4.18;2.65;;;22.80;74.00;;;;;;10366836;28;20032;-56
2023/09/06 19:49:36;;;;;;;3.65;3.25;;;22.70;74.10;;;;;;10366151;28;20034;-57
2023/09/06 19:54:36;;;;;;;3.88;3.20;;;22.70;73.90;;;;;;10366433;28;20088;-57
2023/09/06 19:59:37;;;;;;;3.90;2.88;;;22.70;74.10;;;;;;10365674;28;20121;-56
2023/09/06 20:04:38;;;;;;;5.40;3.85;;;22.80;74.20;;;;;;10365955;28;20053;-56
2023/09/06 20:09:39;;;;;;;4.78;3.30;;;22.70;74.00;;;;;;10365402;28;20460;-58
2023/09/06 20:14:39;;;;;;;4.57;3.95;;;22.80;74.00;;;;;;10369589;28;20124;-56
2023/09/06 20:19:40;;;;;;;4.05;3.28;;;22.70;74.00;;;;;;10405809;28;20060;-56
2023/09/06 20:24:41;;;;;;;3.85;2.80;;;22.80;74.00;;;;;;10378531;28;20024;-56
2023/09/06 20:29:46;;;;;;;5.30;2.92;;;22.70;74.00;;;;;;10383634;28;20402;-56
2023/09/06 20:34:47;;;;;;;3.83;2.63;;;22.70;74.00;;;;;;10364891;28;20030;-56
2023/09/06 20:39:48;;;;;;;4.07;3.08;;;22.70;74.00;;;;;;10364991;28;20409;-57
2023/09/06 20:44:48;;;;;;;5.13;3.10;;;22.70;74.00;;;;;;10365083;28;20036;-55
2023/09/06 20:49:57;;;;;;;4.53;3.28;;;22.70;74.00;;;;;;10364406;28;20037;-56
2023/09/06 20:54:58;;;;;;;4.75;3.33;;;22.70;74.00;;;;;;10364888;28;20034;-57
2023/09/06 20:59:59;;;;;;;3.92;2.70;;;22.70;74.00;;;;;;10364327;28;20416;-57
2023/09/06 21:04:59;;;;;;;3.72;3.20;;;22.70;74.00;;;;;;10364710;28;20026;-57
2023/09/06 21:10:00;;;;;;;4.07;3.20;;;22.70;74.00;;;;;;10363918;28;20034;-58
2023/09/06 21:15:01;;;;;;;5.28;3.00;;;22.70;74.00;;;;;;10371332;28;20053;-56
2023/09/06 21:20:03;;;;;;;4.22;3.35;;;22.70;73.90;;;;;;10405445;28;20033;-57
2023/09/06 21:25:04;;;;;;;4.22;3.20;;;22.70;73.90;;;;;;10374132;28;20374;-57
2023/09/06 21:30:06;;;;;;;4.50;3.35;;;22.70;73.90;;;;;;10382061;28;20453;-55
2023/09/06 21:35:07;;;;;;;5.10;2.95;;;22.70;73.90;;;;;;10364300;28;20505;-57
2023/09/06 21:40:08;;;;;;;5.40;4.03;;;22.70;73.90;;;;;;10363377;28;20026;-56
2023/09/06 21:45:10;;;;;;;3.38;3.00;;;22.70;73.90;;;;;;10364103;28;20034;-56
2023/09/06 21:50:10;;;;;;;3.70;2.88;;;22.70;73.90;;;;;;10371153;28;20038;-57
2023/09/06 21:55:11;;;;;;;4.18;3.20;;;22.70;73.90;;;;;;10371571;28;20041;-57
2023/09/06 22:00:13;;;;;;;4.32;3.92;;;22.70;73.90;;;;;;10376631;28;20030;-57
2023/09/06 22:05:15;;;;;;;3.72;3.10;;;22.70;73.80;;;;;;10370693;28;20044;-56
2023/09/06 22:10:16;;;;;;;4.70;3.47;;;22.60;73.80;;;;;;10370471;28;20437;-57
2023/09/06 22:15:17;;;;;;;4.65;3.20;;;22.70;73.80;;;;;;10379095;28;20041;-57
2023/09/06 22:20:18;;;;;;;4.72;3.42;;;22.60;73.90;;;;;;10410400;28;20380;-56
2023/09/06 22:25:19;;;;;;;4.95;4.45;;;22.70;73.80;;;;;;10377458;28;20237;-55
2023/09/06 22:30:20;;;;;;;5.20;3.92;;;22.60;73.70;;;;;;10386167;28;20038;-56
2023/09/06 22:35:21;;;;;;;5.10;3.50;;;22.60;73.70;;;;;;10369527;28;20037;-56
2023/09/06 22:40:22;;;;;;;4.43;3.92;;;22.60;73.80;;;;;;10368776;28;20040;-57
2023/09/06 22:45:22;;;;;;;4.05;3.40;;;22.60;73.80;;;;;;10369098;28;20037;-56
2023/09/06 22:50:23;;;;;;;3.88;3.25;;;22.60;73.70;;;;;;10368479;28;20033;-56
2023/09/06 22:55:24;;;;;;;4.72;3.70;;;22.60;73.70;;;;;;10368600;28;20036;-57
2023/09/06 23:00:25;;;;;;;3.50;3.20;;;22.60;73.70;;;;;;10396828;28;20030;-56
2023/09/06 23:05:26;;;;;;;3.90;3.45;;;22.60;73.70;;;;;;10409933;28;20536;-57
2023/09/06 23:10:26;;;;;;;4.05;3.58;;;22.60;74.30;;;;;;10408755;28;20026;-57
2023/09/06 23:15:29;;;;;;;5.63;3.38;;;22.60;73.70;;;;;;10407370;28;20623;-56
2023/09/06 23:20:30;;;;;;;3.58;2.90;;;22.60;73.60;;;;;;10408014;28;20056;-56
2023/09/06 23:25:33;;;;;;;4.35;3.65;;;22.60;73.70;;;;;;10373498;28;20033;-57
2023/09/06 23:30:39;;;;;;;4.20;3.20;;;22.60;73.70;;;;;;10385634;28;20037;-56
2023/09/06 23:35:40;;;;;;;4.32;3.45;;;22.60;73.70;;;;;;10367504;28;20425;-57
2023/09/06 23:40:43;;;;;;;3.63;3.15;;;22.60;73.70;;;;;;10366515;28;20293;-55
2023/09/06 23:45:45;;;;;;;3.35;2.83;;;22.60;73.60;;;;;;10366683;28;20392;-57
2023/09/06 23:50:46;;;;;;;3.67;3.08;;;22.60;73.70;;;;;;10366737;28;20030;-58
2023/09/06 23:55:47;;;;;;;4.03;3.38;;;22.60;73.70;;;;;;10366405;28;20022;-57
